<?xml version="1.0" encoding="UTF-8" standalone="no" ?><gpx xmlns="http://www.topografix.com/GPX/1/1" xmlns:gpxx="http://www.garmin.com/xmlschemas/GpxExtensions/v3" xmlns:wptx1="http://www.garmin.com/xmlschemas/WaypointExtension/v1" xmlns:gpxtpx="http://www.garmin.com/xmlschemas/TrackPointExtension/v1" creator="GuideVTT.com" version="1.1" xmlns:xsi="http://www.w3.org/2001/XMLSchema-instance" xsi:schemaLocation="http://www.topografix.com/GPX/1/1 http://www.topografix.com/GPX/1/1/gpx.xsd http://www.garmin.com/xmlschemas/GpxExtensions/v3 http://www8.garmin.com/xmlschemas/GpxExtensionsv3.xsd http://www.garmin.com/xmlschemas/WaypointExtension/v1 http://www8.garmin.com/xmlschemas/WaypointExtensionv1.xsd http://www.garmin.com/xmlschemas/TrackPointExtension/v1 http://www.garmin.com/xmlschemas/TrackPointExtensionv1.xsd">
<metadata><link href="http://www.garmin.com"><text>Garmin International</text></link><time>2013-06-22T15:13:50Z</time></metadata>
<trk><name>posat.gpx</name><extensions><gpxx:TrackExtension><gpxx:DisplayColor>Cyan</gpxx:DisplayColor></gpxx:TrackExtension></extensions><trkseg>
<trkpt lat="46.73468792" lon="7.05408700"><ele></ele><time>2014-4-24T13:4:37Z</time></trkpt>
<trkpt lat="46.73464794" lon="7.05373295"><ele></ele><time>2014-4-24T13:4:40Z</time></trkpt>
<trkpt lat="46.73476595" lon="7.05350295"><ele></ele><time>2014-4-24T13:4:43Z</time></trkpt>
<trkpt lat="46.73496092" lon="7.05308896"><ele></ele><time>2014-4-24T13:4:46Z</time></trkpt>
<trkpt lat="46.73517197" lon="7.05287497"><ele></ele><time>2014-4-24T13:4:49Z</time></trkpt>
<trkpt lat="46.73525093" lon="7.05287296"><ele></ele><time>2014-4-24T13:4:52Z</time></trkpt>
<trkpt lat="46.73524699" lon="7.05267096"><ele></ele><time>2014-4-24T13:4:55Z</time></trkpt>
<trkpt lat="46.73499193" lon="7.05235295"><ele></ele><time>2014-4-24T13:4:58Z</time></trkpt>
<trkpt lat="46.73484894" lon="7.05175993"><ele></ele><time>2014-4-24T13:5:1Z</time></trkpt>
<trkpt lat="46.73482496" lon="7.05171492"><ele></ele><time>2014-4-24T13:5:4Z</time></trkpt>
<trkpt lat="46.73479898" lon="7.05161995"><ele></ele><time>2014-4-24T13:5:7Z</time></trkpt>
<trkpt lat="46.73479496" lon="7.05158492"><ele></ele><time>2014-4-24T13:5:10Z</time></trkpt>
<trkpt lat="46.73479194" lon="7.05157293"><ele></ele><time>2014-4-24T13:5:13Z</time></trkpt>
<trkpt lat="46.73481692" lon="7.05149096"><ele></ele><time>2014-4-24T13:5:16Z</time></trkpt>
<trkpt lat="46.73484500" lon="7.05141594"><ele></ele><time>2014-4-24T13:5:19Z</time></trkpt>
<trkpt lat="46.73481197" lon="7.05108594"><ele></ele><time>2014-4-24T13:5:22Z</time></trkpt>
<trkpt lat="46.73477098" lon="7.05092493"><ele></ele><time>2014-4-24T13:5:25Z</time></trkpt>
<trkpt lat="46.73479797" lon="7.05083398"><ele></ele><time>2014-4-24T13:5:28Z</time></trkpt>
<trkpt lat="46.73480099" lon="7.05081797"><ele></ele><time>2014-4-24T13:5:31Z</time></trkpt>
<trkpt lat="46.73491498" lon="7.05075494"><ele></ele><time>2014-4-24T13:5:34Z</time></trkpt>
<trkpt lat="46.73492898" lon="7.05074899"><ele></ele><time>2014-4-24T13:5:37Z</time></trkpt>
<trkpt lat="46.73495497" lon="7.05071395"><ele></ele><time>2014-4-24T13:5:40Z</time></trkpt>
<trkpt lat="46.73500693" lon="7.05065696"><ele></ele><time>2014-4-24T13:5:43Z</time></trkpt>
<trkpt lat="46.73509293" lon="7.05052293"><ele></ele><time>2014-4-24T13:5:46Z</time></trkpt>
<trkpt lat="46.73510492" lon="7.05050197"><ele></ele><time>2014-4-24T13:5:49Z</time></trkpt>
<trkpt lat="46.73513493" lon="7.05045696"><ele></ele><time>2014-4-24T13:5:52Z</time></trkpt>
<trkpt lat="46.73517994" lon="7.05037692"><ele></ele><time>2014-4-24T13:5:55Z</time></trkpt>
<trkpt lat="46.73519695" lon="7.05035596"><ele></ele><time>2014-4-24T13:5:58Z</time></trkpt>
<trkpt lat="46.73518899" lon="7.05020400"><ele></ele><time>2014-4-24T13:6:1Z</time></trkpt>
<trkpt lat="46.73515496" lon="7.05014298"><ele></ele><time>2014-4-24T13:6:4Z</time></trkpt>
<trkpt lat="46.73515496" lon="7.05013292"><ele></ele><time>2014-4-24T13:6:7Z</time></trkpt>
<trkpt lat="46.73513694" lon="7.05009998"><ele></ele><time>2014-4-24T13:6:10Z</time></trkpt>
<trkpt lat="46.73483896" lon="7.04976495"><ele></ele><time>2014-4-24T13:6:13Z</time></trkpt>
<trkpt lat="46.73454199" lon="7.04924896"><ele></ele><time>2014-4-24T13:6:16Z</time></trkpt>
<trkpt lat="46.73443596" lon="7.04897295"><ele></ele><time>2014-4-24T13:6:19Z</time></trkpt>
<trkpt lat="46.73440897" lon="7.04888100"><ele></ele><time>2014-4-24T13:6:22Z</time></trkpt>
<trkpt lat="46.73438793" lon="7.04877597"><ele></ele><time>2014-4-24T13:6:25Z</time></trkpt>
<trkpt lat="46.73438198" lon="7.04870892"><ele></ele><time>2014-4-24T13:6:28Z</time></trkpt>
<trkpt lat="46.73438299" lon="7.04843994"><ele></ele><time>2014-4-24T13:6:31Z</time></trkpt>
<trkpt lat="46.73442196" lon="7.04813300"><ele></ele><time>2014-4-24T13:6:34Z</time></trkpt>
<trkpt lat="46.73446094" lon="7.04792697"><ele></ele><time>2014-4-24T13:6:37Z</time></trkpt>
<trkpt lat="46.73449296" lon="7.04786897"><ele></ele><time>2014-4-24T13:6:40Z</time></trkpt>
<trkpt lat="46.73453294" lon="7.04781197"><ele></ele><time>2014-4-24T13:6:43Z</time></trkpt>
<trkpt lat="46.73467199" lon="7.04762598"><ele></ele><time>2014-4-24T13:6:46Z</time></trkpt>
<trkpt lat="46.73479496" lon="7.04744694"><ele></ele><time>2014-4-24T13:6:49Z</time></trkpt>
<trkpt lat="46.73496192" lon="7.04732398"><ele></ele><time>2014-4-24T13:6:52Z</time></trkpt>
<trkpt lat="46.73497592" lon="7.04732498"><ele></ele><time>2014-4-24T13:6:55Z</time></trkpt>
<trkpt lat="46.73507298" lon="7.04723094"><ele></ele><time>2014-4-24T13:6:58Z</time></trkpt>
<trkpt lat="46.73511598" lon="7.04719699"><ele></ele><time>2014-4-24T13:7:1Z</time></trkpt>
<trkpt lat="46.73526493" lon="7.04701795"><ele></ele><time>2014-4-24T13:7:4Z</time></trkpt>
<trkpt lat="46.73548898" lon="7.04684093"><ele></ele><time>2014-4-24T13:7:7Z</time></trkpt>
<trkpt lat="46.73571596" lon="7.04674697"><ele></ele><time>2014-4-24T13:7:10Z</time></trkpt>
<trkpt lat="46.73598393" lon="7.04662300"><ele></ele><time>2014-4-24T13:7:13Z</time></trkpt>
<trkpt lat="46.73626900" lon="7.04663699"><ele></ele><time>2014-4-24T13:7:16Z</time></trkpt>
<trkpt lat="46.73661198" lon="7.04665200"><ele></ele><time>2014-4-24T13:7:19Z</time></trkpt>
<trkpt lat="46.73707592" lon="7.04637296"><ele></ele><time>2014-4-24T13:7:22Z</time></trkpt>
<trkpt lat="46.73767699" lon="7.04608798"><ele></ele><time>2014-4-24T13:7:25Z</time></trkpt>
<trkpt lat="46.73806700" lon="7.04591498"><ele></ele><time>2014-4-24T13:7:28Z</time></trkpt>
<trkpt lat="46.73869899" lon="7.04571096"><ele></ele><time>2014-4-24T13:7:31Z</time></trkpt>
<trkpt lat="46.73919898" lon="7.04541693"><ele></ele><time>2014-4-24T13:7:34Z</time></trkpt>
<trkpt lat="46.73930299" lon="7.04477294"><ele></ele><time>2014-4-24T13:7:37Z</time></trkpt>
<trkpt lat="46.73916293" lon="7.04372395"><ele></ele><time>2014-4-24T13:7:40Z</time></trkpt>
<trkpt lat="46.73907794" lon="7.04269792"><ele></ele><time>2014-4-24T13:7:43Z</time></trkpt>
<trkpt lat="46.73912798" lon="7.04153895"><ele></ele><time>2014-4-24T13:7:46Z</time></trkpt>
<trkpt lat="46.73939000" lon="7.04059892"><ele></ele><time>2014-4-24T13:7:49Z</time></trkpt>
<trkpt lat="46.73938799" lon="7.04018695"><ele></ele><time>2014-4-24T13:7:52Z</time></trkpt>
<trkpt lat="46.73947097" lon="7.03971296"><ele></ele><time>2014-4-24T13:7:55Z</time></trkpt>
<trkpt lat="46.73974598" lon="7.03961195"><ele></ele><time>2014-4-24T13:7:58Z</time></trkpt>
<trkpt lat="46.73994195" lon="7.03957792"><ele></ele><time>2014-4-24T13:8:1Z</time></trkpt>
<trkpt lat="46.74043396" lon="7.03933896"><ele></ele><time>2014-4-24T13:8:4Z</time></trkpt>
<trkpt lat="46.74060797" lon="7.03924893"><ele></ele><time>2014-4-24T13:8:7Z</time></trkpt>
<trkpt lat="46.74070093" lon="7.03920694"><ele></ele><time>2014-4-24T13:8:10Z</time></trkpt>
<trkpt lat="46.74089698" lon="7.03909496"><ele></ele><time>2014-4-24T13:8:13Z</time></trkpt>
<trkpt lat="46.74111097" lon="7.03897493"><ele></ele><time>2014-4-24T13:8:16Z</time></trkpt>
<trkpt lat="46.74162294" lon="7.03872699"><ele></ele><time>2014-4-24T13:8:19Z</time></trkpt>
<trkpt lat="46.74183894" lon="7.03852993"><ele></ele><time>2014-4-24T13:8:22Z</time></trkpt>
<trkpt lat="46.74182000" lon="7.03841594"><ele></ele><time>2014-4-24T13:8:25Z</time></trkpt>
<trkpt lat="46.74178496" lon="7.03833095"><ele></ele><time>2014-4-24T13:8:28Z</time></trkpt>
<trkpt lat="46.74176593" lon="7.03821293"><ele></ele><time>2014-4-24T13:8:31Z</time></trkpt>
<trkpt lat="46.74173199" lon="7.03809299"><ele></ele><time>2014-4-24T13:8:34Z</time></trkpt>
<trkpt lat="46.74163392" lon="7.03760600"><ele></ele><time>2014-4-24T13:8:37Z</time></trkpt>
<trkpt lat="46.74159796" lon="7.03704198"><ele></ele><time>2014-4-24T13:8:40Z</time></trkpt>
<trkpt lat="46.74168195" lon="7.03671894"><ele></ele><time>2014-4-24T13:8:43Z</time></trkpt>
<trkpt lat="46.74170198" lon="7.03668198"><ele></ele><time>2014-4-24T13:8:46Z</time></trkpt>
<trkpt lat="46.74170198" lon="7.03657796"><ele></ele><time>2014-4-24T13:8:49Z</time></trkpt>
<trkpt lat="46.74168295" lon="7.03594395"><ele></ele><time>2014-4-24T13:8:52Z</time></trkpt>
<trkpt lat="46.74166493" lon="7.03536593"><ele></ele><time>2014-4-24T13:8:55Z</time></trkpt>
<trkpt lat="46.74166996" lon="7.03487593"><ele></ele><time>2014-4-24T13:8:58Z</time></trkpt>
<trkpt lat="46.74171698" lon="7.03471198"><ele></ele><time>2014-4-24T13:9:1Z</time></trkpt>
<trkpt lat="46.74177599" lon="7.03472698"><ele></ele><time>2014-4-24T13:9:4Z</time></trkpt>
<trkpt lat="46.74189292" lon="7.03483896"><ele></ele><time>2014-4-24T13:9:7Z</time></trkpt>
<trkpt lat="46.74192896" lon="7.03483695"><ele></ele><time>2014-4-24T13:9:10Z</time></trkpt>
<trkpt lat="46.74200096" lon="7.03489294"><ele></ele><time>2014-4-24T13:9:13Z</time></trkpt>
<trkpt lat="46.74207900" lon="7.03500392"><ele></ele><time>2014-4-24T13:9:16Z</time></trkpt>
<trkpt lat="46.74212392" lon="7.03510400"><ele></ele><time>2014-4-24T13:9:19Z</time></trkpt>
<trkpt lat="46.74231092" lon="7.03541799"><ele></ele><time>2014-4-24T13:9:22Z</time></trkpt>
<trkpt lat="46.74253095" lon="7.03563298"><ele></ele><time>2014-4-24T13:9:25Z</time></trkpt>
<trkpt lat="46.74260194" lon="7.03568897"><ele></ele><time>2014-4-24T13:9:28Z</time></trkpt>
<trkpt lat="46.74275500" lon="7.03575997"><ele></ele><time>2014-4-24T13:9:31Z</time></trkpt>
<trkpt lat="46.74300696" lon="7.03581998"><ele></ele><time>2014-4-24T13:9:34Z</time></trkpt>
<trkpt lat="46.74327199" lon="7.03597094"><ele></ele><time>2014-4-24T13:9:37Z</time></trkpt>
<trkpt lat="46.74353594" lon="7.03571093"><ele></ele><time>2014-4-24T13:9:40Z</time></trkpt>
<trkpt lat="46.74367793" lon="7.03557297"><ele></ele><time>2014-4-24T13:9:43Z</time></trkpt>
<trkpt lat="46.74423893" lon="7.03511992"><ele></ele><time>2014-4-24T13:9:46Z</time></trkpt>
<trkpt lat="46.74478694" lon="7.03473595"><ele></ele><time>2014-4-24T13:9:49Z</time></trkpt>
<trkpt lat="46.74567198" lon="7.03416598"><ele></ele><time>2014-4-24T13:9:52Z</time></trkpt>
<trkpt lat="46.74619200" lon="7.03384898"><ele></ele><time>2014-4-24T13:9:55Z</time></trkpt>
<trkpt lat="46.74660095" lon="7.03342192"><ele></ele><time>2014-4-24T13:9:58Z</time></trkpt>
<trkpt lat="46.74705793" lon="7.03290492"><ele></ele><time>2014-4-24T13:10:1Z</time></trkpt>
<trkpt lat="46.74731299" lon="7.03261793"><ele></ele><time>2014-4-24T13:10:4Z</time></trkpt>
<trkpt lat="46.74769898" lon="7.03187596"><ele></ele><time>2014-4-24T13:10:7Z</time></trkpt>
<trkpt lat="46.74802093" lon="7.03133499"><ele></ele><time>2014-4-24T13:10:10Z</time></trkpt>
<trkpt lat="46.74836098" lon="7.03109594"><ele></ele><time>2014-4-24T13:10:13Z</time></trkpt>
<trkpt lat="46.74896993" lon="7.03084993"><ele></ele><time>2014-4-24T13:10:16Z</time></trkpt>
<trkpt lat="46.74941895" lon="7.03014099"><ele></ele><time>2014-4-24T13:10:19Z</time></trkpt>
<trkpt lat="46.74969094" lon="7.03000797"><ele></ele><time>2014-4-24T13:10:22Z</time></trkpt>
<trkpt lat="46.74995698" lon="7.03010897"><ele></ele><time>2014-4-24T13:10:25Z</time></trkpt>
<trkpt lat="46.75012093" lon="7.03030000"><ele></ele><time>2014-4-24T13:10:28Z</time></trkpt>
<trkpt lat="46.75029192" lon="7.03074792"><ele></ele><time>2014-4-24T13:10:31Z</time></trkpt>
<trkpt lat="46.75034892" lon="7.03087499"><ele></ele><time>2014-4-24T13:10:34Z</time></trkpt>
<trkpt lat="46.75036199" lon="7.03090894"><ele></ele><time>2014-4-24T13:10:37Z</time></trkpt>
<trkpt lat="46.75037499" lon="7.03094792"><ele></ele><time>2014-4-24T13:10:40Z</time></trkpt>
<trkpt lat="46.75065394" lon="7.03152996"><ele></ele><time>2014-4-24T13:10:43Z</time></trkpt>
<trkpt lat="46.75076298" lon="7.03183598"><ele></ele><time>2014-4-24T13:10:46Z</time></trkpt>
<trkpt lat="46.75080397" lon="7.03208098"><ele></ele><time>2014-4-24T13:10:49Z</time></trkpt>
<trkpt lat="46.75083599" lon="7.03238298"><ele></ele><time>2014-4-24T13:10:52Z</time></trkpt>
<trkpt lat="46.75082895" lon="7.03289998"><ele></ele><time>2014-4-24T13:10:55Z</time></trkpt>
<trkpt lat="46.75095694" lon="7.03365795"><ele></ele><time>2014-4-24T13:10:58Z</time></trkpt>
<trkpt lat="46.75102492" lon="7.03420194"><ele></ele><time>2014-4-24T13:11:1Z</time></trkpt>
<trkpt lat="46.75106096" lon="7.03426598"><ele></ele><time>2014-4-24T13:11:4Z</time></trkpt>
<trkpt lat="46.75119993" lon="7.03413195"><ele></ele><time>2014-4-24T13:11:7Z</time></trkpt>
<trkpt lat="46.75127897" lon="7.03364496"><ele></ele><time>2014-4-24T13:11:10Z</time></trkpt>
<trkpt lat="46.75153999" lon="7.03346693"><ele></ele><time>2014-4-24T13:11:13Z</time></trkpt>
<trkpt lat="46.75172095" lon="7.03362795"><ele></ele><time>2014-4-24T13:11:16Z</time></trkpt>
<trkpt lat="46.75203896" lon="7.03414595"><ele></ele><time>2014-4-24T13:11:19Z</time></trkpt>
<trkpt lat="46.75231498" lon="7.03441995"><ele></ele><time>2014-4-24T13:11:22Z</time></trkpt>
<trkpt lat="46.75256895" lon="7.03444996"><ele></ele><time>2014-4-24T13:11:25Z</time></trkpt>
<trkpt lat="46.75291093" lon="7.03445893"><ele></ele><time>2014-4-24T13:11:28Z</time></trkpt>
<trkpt lat="46.75326800" lon="7.03463897"><ele></ele><time>2014-4-24T13:11:31Z</time></trkpt>
<trkpt lat="46.75361493" lon="7.03489697"><ele></ele><time>2014-4-24T13:11:34Z</time></trkpt>
<trkpt lat="46.75374493" lon="7.03502395"><ele></ele><time>2014-4-24T13:11:37Z</time></trkpt>
<trkpt lat="46.75383797" lon="7.03500199"><ele></ele><time>2014-4-24T13:11:40Z</time></trkpt>
<trkpt lat="46.75385398" lon="7.03498095"><ele></ele><time>2014-4-24T13:11:43Z</time></trkpt>
<trkpt lat="46.75387292" lon="7.03496092"><ele></ele><time>2014-4-24T13:11:46Z</time></trkpt>
<trkpt lat="46.75403796" lon="7.03486394"><ele></ele><time>2014-4-24T13:11:49Z</time></trkpt>
<trkpt lat="46.75437097" lon="7.03460393"><ele></ele><time>2014-4-24T13:11:52Z</time></trkpt>
<trkpt lat="46.75485394" lon="7.03420697"><ele></ele><time>2014-4-24T13:11:55Z</time></trkpt>
<trkpt lat="46.75526792" lon="7.03405098"><ele></ele><time>2014-4-24T13:11:58Z</time></trkpt>
<trkpt lat="46.75559197" lon="7.03464895"><ele></ele><time>2014-4-24T13:12:1Z</time></trkpt>
<trkpt lat="46.75595499" lon="7.03535194"><ele></ele><time>2014-4-24T13:12:4Z</time></trkpt>
<trkpt lat="46.75621298" lon="7.03584597"><ele></ele><time>2014-4-24T13:12:7Z</time></trkpt>
<trkpt lat="46.75627694" lon="7.03596298"><ele></ele><time>2014-4-24T13:12:10Z</time></trkpt>
<trkpt lat="46.75644600" lon="7.03628895"><ele></ele><time>2014-4-24T13:12:13Z</time></trkpt>
<trkpt lat="46.75668195" lon="7.03647695"><ele></ele><time>2014-4-24T13:12:16Z</time></trkpt>
<trkpt lat="46.75721596" lon="7.03660696"><ele></ele><time>2014-4-24T13:12:19Z</time></trkpt>
<trkpt lat="46.75739693" lon="7.03660495"><ele></ele><time>2014-4-24T13:12:22Z</time></trkpt>
<trkpt lat="46.75782993" lon="7.03641200"><ele></ele><time>2014-4-24T13:12:25Z</time></trkpt>
<trkpt lat="46.75817594" lon="7.03655893"><ele></ele><time>2014-4-24T13:12:28Z</time></trkpt>
<trkpt lat="46.75864499" lon="7.03740399"><ele></ele><time>2014-4-24T13:12:31Z</time></trkpt>
<trkpt lat="46.75917598" lon="7.03868198"><ele></ele><time>2014-4-24T13:12:34Z</time></trkpt>
<trkpt lat="46.75966096" lon="7.04006500"><ele></ele><time>2014-4-24T13:12:37Z</time></trkpt>
<trkpt lat="46.75990697" lon="7.04032299"><ele></ele><time>2014-4-24T13:12:40Z</time></trkpt>
<trkpt lat="46.76001292" lon="7.04043799"><ele></ele><time>2014-4-24T13:12:43Z</time></trkpt>
<trkpt lat="46.76040796" lon="7.04116194"><ele></ele><time>2014-4-24T13:12:46Z</time></trkpt>
<trkpt lat="46.76054995" lon="7.04207196"><ele></ele><time>2014-4-24T13:12:49Z</time></trkpt>
<trkpt lat="46.76066997" lon="7.04284896"><ele></ele><time>2014-4-24T13:12:52Z</time></trkpt>
<trkpt lat="46.76060393" lon="7.04330795"><ele></ele><time>2014-4-24T13:12:55Z</time></trkpt>
<trkpt lat="46.76039396" lon="7.04353997"><ele></ele><time>2014-4-24T13:12:58Z</time></trkpt>
<trkpt lat="46.76045498" lon="7.04361297"><ele></ele><time>2014-4-24T13:13:1Z</time></trkpt>
<trkpt lat="46.76096493" lon="7.04371498"><ele></ele><time>2014-4-24T13:13:4Z</time></trkpt>
<trkpt lat="46.76110500" lon="7.04375597"><ele></ele><time>2014-4-24T13:13:7Z</time></trkpt>
<trkpt lat="46.76126199" lon="7.04386896"><ele></ele><time>2014-4-24T13:13:10Z</time></trkpt>
<trkpt lat="46.76172894" lon="7.04424798"><ele></ele><time>2014-4-24T13:13:13Z</time></trkpt>
<trkpt lat="46.76228399" lon="7.04442593"><ele></ele><time>2014-4-24T13:13:16Z</time></trkpt>
<trkpt lat="46.76280099" lon="7.04464395"><ele></ele><time>2014-4-24T13:13:19Z</time></trkpt>
<trkpt lat="46.76288296" lon="7.04469893"><ele></ele><time>2014-4-24T13:13:22Z</time></trkpt>
<trkpt lat="46.76346794" lon="7.04543595"><ele></ele><time>2014-4-24T13:13:25Z</time></trkpt>
<trkpt lat="46.76353499" lon="7.04550292"><ele></ele><time>2014-4-24T13:13:28Z</time></trkpt>
<trkpt lat="46.76375393" lon="7.04556897"><ele></ele><time>2014-4-24T13:13:31Z</time></trkpt>
<trkpt lat="46.76393699" lon="7.04577995"><ele></ele><time>2014-4-24T13:13:34Z</time></trkpt>
<trkpt lat="46.76401293" lon="7.04606694"><ele></ele><time>2014-4-24T13:13:37Z</time></trkpt>
<trkpt lat="46.76405895" lon="7.04632695"><ele></ele><time>2014-4-24T13:13:40Z</time></trkpt>
<trkpt lat="46.76426992" lon="7.04710999"><ele></ele><time>2014-4-24T13:13:43Z</time></trkpt>
<trkpt lat="46.76432599" lon="7.04752992"><ele></ele><time>2014-4-24T13:13:46Z</time></trkpt>
<trkpt lat="46.76462699" lon="7.04841094"><ele></ele><time>2014-4-24T13:13:49Z</time></trkpt>
<trkpt lat="46.76484299" lon="7.04966999"><ele></ele><time>2014-4-24T13:13:52Z</time></trkpt>
<trkpt lat="46.76508095" lon="7.05139993"><ele></ele><time>2014-4-24T13:13:55Z</time></trkpt>
<trkpt lat="46.76522294" lon="7.05235898"><ele></ele><time>2014-4-24T13:13:58Z</time></trkpt>
<trkpt lat="46.76539896" lon="7.05359892"><ele></ele><time>2014-4-24T13:14:1Z</time></trkpt>
<trkpt lat="46.76528195" lon="7.05452596"><ele></ele><time>2014-4-24T13:14:4Z</time></trkpt>
<trkpt lat="46.76522395" lon="7.05511093"><ele></ele><time>2014-4-24T13:14:7Z</time></trkpt>
<trkpt lat="46.76540298" lon="7.05613394"><ele></ele><time>2014-4-24T13:14:10Z</time></trkpt>
<trkpt lat="46.76583298" lon="7.05690893"><ele></ele><time>2014-4-24T13:14:13Z</time></trkpt>
<trkpt lat="46.76615509" lon="7.05732317"><ele></ele><time>2014-4-24T13:14:16Z</time></trkpt>
<trkpt lat="46.76546342" lon="7.05784771"><ele></ele><time>2014-4-24T13:14:19Z</time></trkpt>
<trkpt lat="46.76515798" lon="7.05717883"><ele></ele><time>2014-4-24T13:14:22Z</time></trkpt>
<trkpt lat="46.76451123" lon="7.05766414"><ele></ele><time>2014-4-24T13:14:25Z</time></trkpt>
<trkpt lat="46.76451123" lon="7.05769029"><ele></ele><time>2014-4-24T13:14:28Z</time></trkpt>
<trkpt lat="46.76444829" lon="7.05770345"><ele></ele><time>2014-4-24T13:14:31Z</time></trkpt>
<trkpt lat="46.76432256" lon="7.05759851"><ele></ele><time>2014-4-24T13:14:34Z</time></trkpt>
<trkpt lat="46.76399021" lon="7.05710021"><ele></ele><time>2014-4-24T13:14:37Z</time></trkpt>
<trkpt lat="46.76381051" lon="7.05692972"><ele></ele><time>2014-4-24T13:14:40Z</time></trkpt>
<trkpt lat="46.76367581" lon="7.05702150"><ele></ele><time>2014-4-24T13:14:43Z</time></trkpt>
<trkpt lat="46.76370271" lon="7.05731001"><ele></ele><time>2014-4-24T13:14:46Z</time></trkpt>
<trkpt lat="46.76384646" lon="7.05782147"><ele></ele><time>2014-4-24T13:14:49Z</time></trkpt>
<trkpt lat="46.76410697" lon="7.05856897"><ele></ele><time>2014-4-24T13:14:52Z</time></trkpt>
<trkpt lat="46.76410697" lon="7.05859520"><ele></ele><time>2014-4-24T13:14:55Z</time></trkpt>
<trkpt lat="46.76438542" lon="7.05930339"><ele></ele><time>2014-4-24T13:14:58Z</time></trkpt>
<trkpt lat="46.76453814" lon="7.05982802"><ele></ele><time>2014-4-24T13:15:1Z</time></trkpt>
<trkpt lat="46.76444829" lon="7.05997227"><ele></ele><time>2014-4-24T13:15:4Z</time></trkpt>
<trkpt lat="46.76424167" lon="7.06014276"><ele></ele><time>2014-4-24T13:15:7Z</time></trkpt>
<trkpt lat="46.76411594" lon="7.06012960"><ele></ele><time>2014-4-24T13:15:10Z</time></trkpt>
<trkpt lat="46.76413388" lon="7.06033948"><ele></ele><time>2014-4-24T13:15:13Z</time></trkpt>
<trkpt lat="46.76404411" lon="7.06045750"><ele></ele><time>2014-4-24T13:15:16Z</time></trkpt>
<trkpt lat="46.76426866" lon="7.06117876"><ele></ele><time>2014-4-24T13:15:19Z</time></trkpt>
<trkpt lat="46.76451123" lon="7.06193942"><ele></ele><time>2014-4-24T13:15:22Z</time></trkpt>
<trkpt lat="46.76483461" lon="7.06276562"><ele></ele><time>2014-4-24T13:15:25Z</time></trkpt>
<trkpt lat="46.76511305" lon="7.06339510"><ele></ele><time>2014-4-24T13:15:28Z</time></trkpt>
<trkpt lat="46.76513107" lon="7.06339510"><ele></ele><time>2014-4-24T13:15:31Z</time></trkpt>
<trkpt lat="46.76528379" lon="7.06367053"><ele></ele><time>2014-4-24T13:15:34Z</time></trkpt>
<trkpt lat="46.76534666" lon="7.06391972"><ele></ele><time>2014-4-24T13:15:37Z</time></trkpt>
<trkpt lat="46.76574186" lon="7.06445742"><ele></ele><time>2014-4-24T13:15:40Z</time></trkpt>
<trkpt lat="46.76540055" lon="7.06508690"><ele></ele><time>2014-4-24T13:15:43Z</time></trkpt>
<trkpt lat="46.76558068" lon="7.06542813"><ele></ele><time>2014-4-24T13:15:46Z</time></trkpt>
<trkpt lat="46.76586818" lon="7.06612316"><ele></ele><time>2014-4-24T13:15:49Z</time></trkpt>
<trkpt lat="46.76617353" lon="7.06687074"><ele></ele><time>2014-4-24T13:15:52Z</time></trkpt>
<trkpt lat="46.76644309" lon="7.06759200"><ele></ele><time>2014-4-24T13:15:55Z</time></trkpt>
<trkpt lat="46.76655089" lon="7.06810347"><ele></ele><time>2014-4-24T13:15:58Z</time></trkpt>
<trkpt lat="46.76673051" lon="7.06862809"><ele></ele><time>2014-4-24T13:16:1Z</time></trkpt>
<trkpt lat="46.76693712" lon="7.06896907"><ele></ele><time>2014-4-24T13:16:4Z</time></trkpt>
<trkpt lat="46.76718866" lon="7.06954608"><ele></ele><time>2014-4-24T13:16:7Z</time></trkpt>
<trkpt lat="46.76740425" lon="7.07004447"><ele></ele><time>2014-4-24T13:16:10Z</time></trkpt>
<trkpt lat="46.76767373" lon="7.07084443"><ele></ele><time>2014-4-24T13:16:13Z</time></trkpt>
<trkpt lat="46.76779057" lon="7.07178866"><ele></ele><time>2014-4-24T13:16:16Z</time></trkpt>
<trkpt lat="46.76779057" lon="7.07180173"><ele></ele><time>2014-4-24T13:16:19Z</time></trkpt>
<trkpt lat="46.76783550" lon="7.07239190"><ele></ele><time>2014-4-24T13:16:22Z</time></trkpt>
<trkpt lat="46.76783550" lon="7.07241814"><ele></ele><time>2014-4-24T13:16:25Z</time></trkpt>
<trkpt lat="46.76787137" lon="7.07312632"><ele></ele><time>2014-4-24T13:16:28Z</time></trkpt>
<trkpt lat="46.76791630" lon="7.07391322"><ele></ele><time>2014-4-24T13:16:31Z</time></trkpt>
<trkpt lat="46.76791630" lon="7.07392629"><ele></ele><time>2014-4-24T13:16:34Z</time></trkpt>
<trkpt lat="46.76797019" lon="7.07424103"><ele></ele><time>2014-4-24T13:16:37Z</time></trkpt>
<trkpt lat="46.76822173" lon="7.07470011"><ele></ele><time>2014-4-24T13:16:40Z</time></trkpt>
<trkpt lat="46.76832056" lon="7.07489683"><ele></ele><time>2014-4-24T13:16:43Z</time></trkpt>
<trkpt lat="46.76844620" lon="7.07523823"><ele></ele><time>2014-4-24T13:16:46Z</time></trkpt>
<trkpt lat="46.76850907" lon="7.07599889"><ele></ele><time>2014-4-24T13:16:49Z</time></trkpt>
<trkpt lat="46.76885943" lon="7.07717931"><ele></ele><time>2014-4-24T13:16:52Z</time></trkpt>
<trkpt lat="46.76928163" lon="7.07834657"><ele></ele><time>2014-4-24T13:16:55Z</time></trkpt>
<trkpt lat="46.76928163" lon="7.07835965"><ele></ele><time>2014-4-24T13:16:58Z</time></trkpt>
<trkpt lat="46.76956904" lon="7.07952691"><ele></ele><time>2014-4-24T13:17:1Z</time></trkpt>
<trkpt lat="46.76991940" lon="7.08060239"><ele></ele><time>2014-4-24T13:17:4Z</time></trkpt>
<trkpt lat="46.77006315" lon="7.08094337"><ele></ele><time>2014-4-24T13:17:7Z</time></trkpt>
<trkpt lat="46.77031956" lon="7.08143489"><ele></ele><time>2014-4-24T13:17:10Z</time></trkpt>
<trkpt lat="46.77036448" lon="7.08176279"><ele></ele><time>2014-4-24T13:17:13Z</time></trkpt>
<trkpt lat="46.77030162" lon="7.08256284"><ele></ele><time>2014-4-24T13:17:16Z</time></trkpt>
<trkpt lat="46.77052617" lon="7.08311370"><ele></ele><time>2014-4-24T13:17:19Z</time></trkpt>
<trkpt lat="46.77052617" lon="7.08315301"><ele></ele><time>2014-4-24T13:17:22Z</time></trkpt>
<trkpt lat="46.77102925" lon="7.08413671"><ele></ele><time>2014-4-24T13:17:25Z</time></trkpt>
<trkpt lat="46.77137953" lon="7.08491053"><ele></ele><time>2014-4-24T13:17:28Z</time></trkpt>
<trkpt lat="46.77164909" lon="7.08506785"><ele></ele><time>2014-4-24T13:17:31Z</time></trkpt>
<trkpt lat="46.77214312" lon="7.08519903"><ele></ele><time>2014-4-24T13:17:34Z</time></trkpt>
<trkpt lat="46.77276246" lon="7.08537002"><ele></ele><time>2014-4-24T13:17:37Z</time></trkpt>
<trkpt lat="46.77327451" lon="7.08543557"><ele></ele><time>2014-4-24T13:17:40Z</time></trkpt>
<trkpt lat="46.77402914" lon="7.08530439"><ele></ele><time>2014-4-24T13:17:43Z</time></trkpt>
<trkpt lat="46.77402914" lon="7.08527816"><ele></ele><time>2014-4-24T13:17:46Z</time></trkpt>
<trkpt lat="46.77464001" lon="7.08510767"><ele></ele><time>2014-4-24T13:17:49Z</time></trkpt>
<trkpt lat="46.77509808" lon="7.08468799"><ele></ele><time>2014-4-24T13:17:52Z</time></trkpt>
<trkpt lat="46.77488250" lon="7.08529131"><ele></ele><time>2014-4-24T13:17:55Z</time></trkpt>
<trkpt lat="46.77517897" lon="7.08577663"><ele></ele><time>2014-4-24T13:17:58Z</time></trkpt>
<trkpt lat="46.77545741" lon="7.08635372"><ele></ele><time>2014-4-24T13:18:1Z</time></trkpt>
<trkpt lat="46.77564592" lon="7.08686099"><ele></ele><time>2014-4-24T13:18:4Z</time></trkpt>
<trkpt lat="46.77570694" lon="7.08698295"><ele></ele><time>2014-4-24T13:18:7Z</time></trkpt>
<trkpt lat="46.77593392" lon="7.08757295"><ele></ele><time>2014-4-24T13:18:10Z</time></trkpt>
<trkpt lat="46.77604297" lon="7.08771695"><ele></ele><time>2014-4-24T13:18:13Z</time></trkpt>
<trkpt lat="46.77606292" lon="7.08774998"><ele></ele><time>2014-4-24T13:18:16Z</time></trkpt>
<trkpt lat="46.77624799" lon="7.08792692"><ele></ele><time>2014-4-24T13:18:19Z</time></trkpt>
<trkpt lat="46.77639593" lon="7.08803094"><ele></ele><time>2014-4-24T13:18:22Z</time></trkpt>
<trkpt lat="46.77646399" lon="7.08807696"><ele></ele><time>2014-4-24T13:18:25Z</time></trkpt>
<trkpt lat="46.77658997" lon="7.08809992"><ele></ele><time>2014-4-24T13:18:28Z</time></trkpt>
<trkpt lat="46.77662895" lon="7.08811794"><ele></ele><time>2014-4-24T13:18:31Z</time></trkpt>
<trkpt lat="46.77673800" lon="7.08822096"><ele></ele><time>2014-4-24T13:18:34Z</time></trkpt>
<trkpt lat="46.77688393" lon="7.08836094"><ele></ele><time>2014-4-24T13:18:37Z</time></trkpt>
<trkpt lat="46.77683598" lon="7.08860795"><ele></ele><time>2014-4-24T13:18:40Z</time></trkpt>
<trkpt lat="46.77673699" lon="7.08877693"><ele></ele><time>2014-4-24T13:18:43Z</time></trkpt>
<trkpt lat="46.77634497" lon="7.08937992"><ele></ele><time>2014-4-24T13:18:46Z</time></trkpt>
<trkpt lat="46.77630298" lon="7.08944195"><ele></ele><time>2014-4-24T13:18:49Z</time></trkpt>
<trkpt lat="46.77582798" lon="7.09014997"><ele></ele><time>2014-4-24T13:18:52Z</time></trkpt>
<trkpt lat="46.77574198" lon="7.09026195"><ele></ele><time>2014-4-24T13:18:55Z</time></trkpt>
<trkpt lat="46.77562396" lon="7.09055297"><ele></ele><time>2014-4-24T13:18:58Z</time></trkpt>
<trkpt lat="46.77575497" lon="7.09071793"><ele></ele><time>2014-4-24T13:19:1Z</time></trkpt>
<trkpt lat="46.77598296" lon="7.09079596"><ele></ele><time>2014-4-24T13:19:4Z</time></trkpt>
<trkpt lat="46.77623592" lon="7.09081792"><ele></ele><time>2014-4-24T13:19:7Z</time></trkpt>
<trkpt lat="46.77662099" lon="7.09086796"><ele></ele><time>2014-4-24T13:19:10Z</time></trkpt>
<trkpt lat="46.77704897" lon="7.09107793"><ele></ele><time>2014-4-24T13:19:13Z</time></trkpt>
<trkpt lat="46.77756093" lon="7.09151396"><ele></ele><time>2014-4-24T13:19:16Z</time></trkpt>
<trkpt lat="46.77758398" lon="7.09160096"><ele></ele><time>2014-4-24T13:19:19Z</time></trkpt>
<trkpt lat="46.77753998" lon="7.09178695"><ele></ele><time>2014-4-24T13:19:22Z</time></trkpt>
<trkpt lat="46.77753093" lon="7.09187597"><ele></ele><time>2014-4-24T13:19:25Z</time></trkpt>
<trkpt lat="46.77751492" lon="7.09197999"><ele></ele><time>2014-4-24T13:19:28Z</time></trkpt>
<trkpt lat="46.77749095" lon="7.09202693"><ele></ele><time>2014-4-24T13:19:31Z</time></trkpt>
<trkpt lat="46.77751299" lon="7.09216992"><ele></ele><time>2014-4-24T13:19:34Z</time></trkpt>
<trkpt lat="46.77761399" lon="7.09233899"><ele></ele><time>2014-4-24T13:19:37Z</time></trkpt>
<trkpt lat="46.77762992" lon="7.09235500"><ele></ele><time>2014-4-24T13:19:40Z</time></trkpt>
<trkpt lat="46.77767099" lon="7.09232692"><ele></ele><time>2014-4-24T13:19:43Z</time></trkpt>
<trkpt lat="46.77769798" lon="7.09231292"><ele></ele><time>2014-4-24T13:19:46Z</time></trkpt>
<trkpt lat="46.77772597" lon="7.09230898"><ele></ele><time>2014-4-24T13:19:49Z</time></trkpt>
<trkpt lat="46.77782597" lon="7.09230395"><ele></ele><time>2014-4-24T13:19:52Z</time></trkpt>
<trkpt lat="46.77792496" lon="7.09238199"><ele></ele><time>2014-4-24T13:19:55Z</time></trkpt>
<trkpt lat="46.77826594" lon="7.09278792"><ele></ele><time>2014-4-24T13:19:58Z</time></trkpt>
<trkpt lat="46.77861295" lon="7.09308900"><ele></ele><time>2014-4-24T13:20:1Z</time></trkpt>
<trkpt lat="46.77898494" lon="7.09338195"><ele></ele><time>2014-4-24T13:20:4Z</time></trkpt>
<trkpt lat="46.77919599" lon="7.09345395"><ele></ele><time>2014-4-24T13:20:7Z</time></trkpt>
<trkpt lat="46.77928199" lon="7.09340592"><ele></ele><time>2014-4-24T13:20:10Z</time></trkpt>
<trkpt lat="46.77927797" lon="7.09328698"><ele></ele><time>2014-4-24T13:20:13Z</time></trkpt>
<trkpt lat="46.77940797" lon="7.09303393"><ele></ele><time>2014-4-24T13:20:16Z</time></trkpt>
<trkpt lat="46.77943496" lon="7.09302194"><ele></ele><time>2014-4-24T13:20:19Z</time></trkpt>
<trkpt lat="46.77950394" lon="7.09296897"><ele></ele><time>2014-4-24T13:20:22Z</time></trkpt>
<trkpt lat="46.77952498" lon="7.09294994"><ele></ele><time>2014-4-24T13:20:25Z</time></trkpt>
<trkpt lat="46.77993293" lon="7.09265599"><ele></ele><time>2014-4-24T13:20:28Z</time></trkpt>
<trkpt lat="46.78014097" lon="7.09256899"><ele></ele><time>2014-4-24T13:20:31Z</time></trkpt>
<trkpt lat="46.78038295" lon="7.09245097"><ele></ele><time>2014-4-24T13:20:34Z</time></trkpt>
<trkpt lat="46.78121494" lon="7.09205593"><ele></ele><time>2014-4-24T13:20:37Z</time></trkpt>
<trkpt lat="46.78152096" lon="7.09190296"><ele></ele><time>2014-4-24T13:20:40Z</time></trkpt>
<trkpt lat="46.78215799" lon="7.09158093"><ele></ele><time>2014-4-24T13:20:43Z</time></trkpt>
<trkpt lat="46.78227793" lon="7.09153793"><ele></ele><time>2014-4-24T13:20:46Z</time></trkpt>
<trkpt lat="46.78242998" lon="7.09145193"><ele></ele><time>2014-4-24T13:20:49Z</time></trkpt>
<trkpt lat="46.78244599" lon="7.09142896"><ele></ele><time>2014-4-24T13:20:52Z</time></trkpt>
<trkpt lat="46.78245094" lon="7.09142393"><ele></ele><time>2014-4-24T13:20:55Z</time></trkpt>
<trkpt lat="46.78245094" lon="7.09142393"><ele></ele><time>2014-4-24T13:20:58Z</time></trkpt>
<trkpt lat="46.78246996" lon="7.09141798"><ele></ele><time>2014-4-24T13:21:1Z</time></trkpt>
<trkpt lat="46.78255093" lon="7.09122394"><ele></ele><time>2014-4-24T13:21:4Z</time></trkpt>
<trkpt lat="46.78265696" lon="7.09075196"><ele></ele><time>2014-4-24T13:21:7Z</time></trkpt>
<trkpt lat="46.78281195" lon="7.09069094"><ele></ele><time>2014-4-24T13:21:10Z</time></trkpt>
<trkpt lat="46.78316499" lon="7.09077300"><ele></ele><time>2014-4-24T13:21:13Z</time></trkpt>
<trkpt lat="46.78337496" lon="7.09104993"><ele></ele><time>2014-4-24T13:21:16Z</time></trkpt>
<trkpt lat="46.78339097" lon="7.09108497"><ele></ele><time>2014-4-24T13:21:19Z</time></trkpt>
<trkpt lat="46.78336792" lon="7.09105396"><ele></ele><time>2014-4-24T13:21:22Z</time></trkpt>
<trkpt lat="46.78315493" lon="7.09101892"><ele></ele><time>2014-4-24T13:21:25Z</time></trkpt>
<trkpt lat="46.78309995" lon="7.09099394"><ele></ele><time>2014-4-24T13:21:28Z</time></trkpt>
<trkpt lat="46.78301395" lon="7.09109796"><ele></ele><time>2014-4-24T13:21:31Z</time></trkpt>
<trkpt lat="46.78301596" lon="7.09157196"><ele></ele><time>2014-4-24T13:21:34Z</time></trkpt>
<trkpt lat="46.78312099" lon="7.09179098"><ele></ele><time>2014-4-24T13:21:37Z</time></trkpt>
<trkpt lat="46.78333799" lon="7.09206892"><ele></ele><time>2014-4-24T13:21:40Z</time></trkpt>
<trkpt lat="46.78341393" lon="7.09221192"><ele></ele><time>2014-4-24T13:21:43Z</time></trkpt>
<trkpt lat="46.78352097" lon="7.09234100"><ele></ele><time>2014-4-24T13:21:46Z</time></trkpt>
<trkpt lat="46.78341100" lon="7.09279194"><ele></ele><time>2014-4-24T13:21:49Z</time></trkpt>
<trkpt lat="46.78340798" lon="7.09295497"><ele></ele><time>2014-4-24T13:21:52Z</time></trkpt>
<trkpt lat="46.78345693" lon="7.09353198"><ele></ele><time>2014-4-24T13:21:55Z</time></trkpt>
<trkpt lat="46.78347294" lon="7.09375595"><ele></ele><time>2014-4-24T13:21:58Z</time></trkpt>
<trkpt lat="46.78360898" lon="7.09394697"><ele></ele><time>2014-4-24T13:22:1Z</time></trkpt>
<trkpt lat="46.78377192" lon="7.09394798"><ele></ele><time>2014-4-24T13:22:4Z</time></trkpt>
<trkpt lat="46.78389095" lon="7.09391395"><ele></ele><time>2014-4-24T13:22:7Z</time></trkpt>
<trkpt lat="46.78394996" lon="7.09389593"><ele></ele><time>2014-4-24T13:22:10Z</time></trkpt>
<trkpt lat="46.78402900" lon="7.09386592"><ele></ele><time>2014-4-24T13:22:13Z</time></trkpt>
<trkpt lat="46.78405498" lon="7.09385494"><ele></ele><time>2014-4-24T13:22:16Z</time></trkpt>
<trkpt lat="46.78413293" lon="7.09381294"><ele></ele><time>2014-4-24T13:22:19Z</time></trkpt>
<trkpt lat="46.78424299" lon="7.09377900"><ele></ele><time>2014-4-24T13:22:22Z</time></trkpt>
<trkpt lat="46.78442496" lon="7.09381496"><ele></ele><time>2014-4-24T13:22:25Z</time></trkpt>
<trkpt lat="46.78462495" lon="7.09460596"><ele></ele><time>2014-4-24T13:22:28Z</time></trkpt>
<trkpt lat="46.78472696" lon="7.09541297"><ele></ele><time>2014-4-24T13:22:31Z</time></trkpt>
<trkpt lat="46.78479192" lon="7.09609098"><ele></ele><time>2014-4-24T13:22:34Z</time></trkpt>
<trkpt lat="46.78463099" lon="7.09642097"><ele></ele><time>2014-4-24T13:22:37Z</time></trkpt>
<trkpt lat="46.78461699" lon="7.09656296"><ele></ele><time>2014-4-24T13:22:40Z</time></trkpt>
<trkpt lat="46.78460299" lon="7.09677796"><ele></ele><time>2014-4-24T13:22:43Z</time></trkpt>
<trkpt lat="46.78462294" lon="7.09709597"><ele></ele><time>2014-4-24T13:22:46Z</time></trkpt>
<trkpt lat="46.78456594" lon="7.09742295"><ele></ele><time>2014-4-24T13:22:49Z</time></trkpt>
<trkpt lat="46.78431398" lon="7.09844093"><ele></ele><time>2014-4-24T13:22:52Z</time></trkpt>
<trkpt lat="46.78435396" lon="7.09881996"><ele></ele><time>2014-4-24T13:22:55Z</time></trkpt>
<trkpt lat="46.78445195" lon="7.09910897"><ele></ele><time>2014-4-24T13:22:58Z</time></trkpt>
<trkpt lat="46.78450895" lon="7.09957592"><ele></ele><time>2014-4-24T13:23:1Z</time></trkpt>
<trkpt lat="46.78448698" lon="7.09975496"><ele></ele><time>2014-4-24T13:23:4Z</time></trkpt>
<trkpt lat="46.78446393" lon="7.09991799"><ele></ele><time>2014-4-24T13:23:7Z</time></trkpt>
<trkpt lat="46.78437894" lon="7.10008697"><ele></ele><time>2014-4-24T13:23:10Z</time></trkpt>
<trkpt lat="46.78420954" lon="7.10025351"><ele></ele><time>2014-4-24T13:23:13Z</time></trkpt>
<trkpt lat="46.78387720" lon="7.09982059"><ele></ele><time>2014-4-24T13:23:16Z</time></trkpt>
<trkpt lat="46.78369749" lon="7.10001740"><ele></ele><time>2014-4-24T13:23:19Z</time></trkpt>
<trkpt lat="46.78350882" lon="7.10042400"><ele></ele><time>2014-4-24T13:23:22Z</time></trkpt>
<trkpt lat="46.78350882" lon="7.10045024"><ele></ele><time>2014-4-24T13:23:25Z</time></trkpt>
<trkpt lat="46.78338309" lon="7.10079138"><ele></ele><time>2014-4-24T13:23:28Z</time></trkpt>
<trkpt lat="46.78345492" lon="7.10096187"><ele></ele><time>2014-4-24T13:23:31Z</time></trkpt>
<trkpt lat="46.78339206" lon="7.10164407"><ele></ele><time>2014-4-24T13:23:34Z</time></trkpt>
<trkpt lat="46.78342802" lon="7.10202444"><ele></ele><time>2014-4-24T13:23:37Z</time></trkpt>
<trkpt lat="46.78356280" lon="7.10253607"><ele></ele><time>2014-4-24T13:23:40Z</time></trkpt>
<trkpt lat="46.78359867" lon="7.10317888"><ele></ele><time>2014-4-24T13:23:43Z</time></trkpt>
<trkpt lat="46.78361669" lon="7.10400534"><ele></ele><time>2014-4-24T13:23:46Z</time></trkpt>
<trkpt lat="46.78369749" lon="7.10489742"><ele></ele><time>2014-4-24T13:23:49Z</time></trkpt>
<trkpt lat="46.78375139" lon="7.10557954"><ele></ele><time>2014-4-24T13:23:52Z</time></trkpt>
<trkpt lat="46.78389514" lon="7.10611741"><ele></ele><time>2014-4-24T13:23:55Z</time></trkpt>
<trkpt lat="46.78407476" lon="7.10651094"><ele></ele><time>2014-4-24T13:23:58Z</time></trkpt>
<trkpt lat="46.78408382" lon="7.10652410"><ele></ele><time>2014-4-24T13:24:1Z</time></trkpt>
<trkpt lat="46.78438020" lon="7.10694387"><ele></ele><time>2014-4-24T13:24:4Z</time></trkpt>
<trkpt lat="46.78461380" lon="7.10714067"><ele></ele><time>2014-4-24T13:24:7Z</time></trkpt>
<trkpt lat="46.78459494" lon="7.10728392"><ele></ele><time>2014-4-24T13:24:10Z</time></trkpt>
<trkpt lat="46.78463300" lon="7.10789999"><ele></ele><time>2014-4-24T13:24:13Z</time></trkpt>
<trkpt lat="46.78472394" lon="7.10818598"><ele></ele><time>2014-4-24T13:24:16Z</time></trkpt>
<trkpt lat="46.78539994" lon="7.10936892"><ele></ele><time>2014-4-24T13:24:19Z</time></trkpt>
<trkpt lat="46.78560295" lon="7.10991098"><ele></ele><time>2014-4-24T13:24:22Z</time></trkpt>
<trkpt lat="46.78547798" lon="7.11027492"><ele></ele><time>2014-4-24T13:24:25Z</time></trkpt>
<trkpt lat="46.78542299" lon="7.11027592"><ele></ele><time>2014-4-24T13:24:28Z</time></trkpt>
<trkpt lat="46.78481195" lon="7.11009094"><ele></ele><time>2014-4-24T13:24:31Z</time></trkpt>
<trkpt lat="46.78471698" lon="7.11004592"><ele></ele><time>2014-4-24T13:24:34Z</time></trkpt>
<trkpt lat="46.78443200" lon="7.11007895"><ele></ele><time>2014-4-24T13:24:37Z</time></trkpt>
<trkpt lat="46.78409597" lon="7.11031892"><ele></ele><time>2014-4-24T13:24:40Z</time></trkpt>
<trkpt lat="46.78381593" lon="7.11053895"><ele></ele><time>2014-4-24T13:24:43Z</time></trkpt>
<trkpt lat="46.78354695" lon="7.11076300"><ele></ele><time>2014-4-24T13:24:46Z</time></trkpt>
<trkpt lat="46.78324093" lon="7.11096299"><ele></ele><time>2014-4-24T13:24:49Z</time></trkpt>
<trkpt lat="46.78272595" lon="7.11124294"><ele></ele><time>2014-4-24T13:24:52Z</time></trkpt>
<trkpt lat="46.78269192" lon="7.11126197"><ele></ele><time>2014-4-24T13:24:55Z</time></trkpt>
<trkpt lat="46.78199496" lon="7.11169599"><ele></ele><time>2014-4-24T13:24:58Z</time></trkpt>
<trkpt lat="46.78173797" lon="7.11205993"><ele></ele><time>2014-4-24T13:25:1Z</time></trkpt>
<trkpt lat="46.78171492" lon="7.11216998"><ele></ele><time>2014-4-24T13:25:4Z</time></trkpt>
<trkpt lat="46.78162297" lon="7.11211894"><ele></ele><time>2014-4-24T13:25:7Z</time></trkpt>
<trkpt lat="46.78137294" lon="7.11167998"><ele></ele><time>2014-4-24T13:25:10Z</time></trkpt>
<trkpt lat="46.78110799" lon="7.11131997"><ele></ele><time>2014-4-24T13:25:13Z</time></trkpt>
<trkpt lat="46.78087296" lon="7.11089996"><ele></ele><time>2014-4-24T13:25:16Z</time></trkpt>
<trkpt lat="46.78066995" lon="7.11049494"><ele></ele><time>2014-4-24T13:25:19Z</time></trkpt>
<trkpt lat="46.78043894" lon="7.11014098"><ele></ele><time>2014-4-24T13:25:22Z</time></trkpt>
<trkpt lat="46.78022093" lon="7.10989296"><ele></ele><time>2014-4-24T13:25:25Z</time></trkpt>
<trkpt lat="46.78007098" lon="7.10965692"><ele></ele><time>2014-4-24T13:25:28Z</time></trkpt>
<trkpt lat="46.78006595" lon="7.10962297"><ele></ele><time>2014-4-24T13:25:31Z</time></trkpt>
<trkpt lat="46.78005698" lon="7.10958593"><ele></ele><time>2014-4-24T13:25:34Z</time></trkpt>
<trkpt lat="46.78002496" lon="7.10959096"><ele></ele><time>2014-4-24T13:25:37Z</time></trkpt>
<trkpt lat="46.77997693" lon="7.10954896"><ele></ele><time>2014-4-24T13:25:40Z</time></trkpt>
<trkpt lat="46.77986696" lon="7.10939398"><ele></ele><time>2014-4-24T13:25:43Z</time></trkpt>
<trkpt lat="46.77983997" lon="7.10933095"><ele></ele><time>2014-4-24T13:25:46Z</time></trkpt>
<trkpt lat="46.77980594" lon="7.10927797"><ele></ele><time>2014-4-24T13:25:49Z</time></trkpt>
<trkpt lat="46.77978692" lon="7.10923699"><ele></ele><time>2014-4-24T13:25:52Z</time></trkpt>
<trkpt lat="46.77949497" lon="7.10878093"><ele></ele><time>2014-4-24T13:25:55Z</time></trkpt>
<trkpt lat="46.77937193" lon="7.10857498"><ele></ele><time>2014-4-24T13:25:58Z</time></trkpt>
<trkpt lat="46.77928794" lon="7.10846795"><ele></ele><time>2014-4-24T13:26:1Z</time></trkpt>
<trkpt lat="46.77927093" lon="7.10843392"><ele></ele><time>2014-4-24T13:26:4Z</time></trkpt>
<trkpt lat="46.77926095" lon="7.10842595"><ele></ele><time>2014-4-24T13:26:7Z</time></trkpt>
<trkpt lat="46.77927596" lon="7.10845596"><ele></ele><time>2014-4-24T13:26:10Z</time></trkpt>
<trkpt lat="46.77925894" lon="7.10846795"><ele></ele><time>2014-4-24T13:26:13Z</time></trkpt>
<trkpt lat="46.77911796" lon="7.10828195"><ele></ele><time>2014-4-24T13:26:16Z</time></trkpt>
<trkpt lat="46.77896792" lon="7.10807400"><ele></ele><time>2014-4-24T13:26:19Z</time></trkpt>
<trkpt lat="46.77895493" lon="7.10805799"><ele></ele><time>2014-4-24T13:26:22Z</time></trkpt>
<trkpt lat="46.77876692" lon="7.10784299"><ele></ele><time>2014-4-24T13:26:25Z</time></trkpt>
<trkpt lat="46.77863600" lon="7.10767695"><ele></ele><time>2014-4-24T13:26:28Z</time></trkpt>
<trkpt lat="46.77845797" lon="7.10748098"><ele></ele><time>2014-4-24T13:26:31Z</time></trkpt>
<trkpt lat="46.77825496" lon="7.10726095"><ele></ele><time>2014-4-24T13:26:34Z</time></trkpt>
<trkpt lat="46.77812797" lon="7.10710295"><ele></ele><time>2014-4-24T13:26:37Z</time></trkpt>
<trkpt lat="46.77804600" lon="7.10699793"><ele></ele><time>2014-4-24T13:26:40Z</time></trkpt>
<trkpt lat="46.77781994" lon="7.10676500"><ele></ele><time>2014-4-24T13:26:43Z</time></trkpt>
<trkpt lat="46.77763998" lon="7.10654296"><ele></ele><time>2014-4-24T13:26:46Z</time></trkpt>
<trkpt lat="46.77746094" lon="7.10637096"><ele></ele><time>2014-4-24T13:26:49Z</time></trkpt>
<trkpt lat="46.77736899" lon="7.10627499"><ele></ele><time>2014-4-24T13:26:52Z</time></trkpt>
<trkpt lat="46.77733596" lon="7.10622495"><ele></ele><time>2014-4-24T13:26:55Z</time></trkpt>
<trkpt lat="46.77715994" lon="7.10599998"><ele></ele><time>2014-4-24T13:26:58Z</time></trkpt>
<trkpt lat="46.77703195" lon="7.10581692"><ele></ele><time>2014-4-24T13:27:1Z</time></trkpt>
<trkpt lat="46.77695392" lon="7.10570997"><ele></ele><time>2014-4-24T13:27:4Z</time></trkpt>
<trkpt lat="46.77673398" lon="7.10549296"><ele></ele><time>2014-4-24T13:27:7Z</time></trkpt>
<trkpt lat="46.77654295" lon="7.10529598"><ele></ele><time>2014-4-24T13:27:10Z</time></trkpt>
<trkpt lat="46.77636199" lon="7.10502793"><ele></ele><time>2014-4-24T13:27:13Z</time></trkpt>
<trkpt lat="46.77612495" lon="7.10475996"><ele></ele><time>2014-4-24T13:27:16Z</time></trkpt>
<trkpt lat="46.77574592" lon="7.10439099"><ele></ele><time>2014-4-24T13:27:19Z</time></trkpt>
<trkpt lat="46.77542598" lon="7.10413199"><ele></ele><time>2014-4-24T13:27:22Z</time></trkpt>
<trkpt lat="46.77518592" lon="7.10396896"><ele></ele><time>2014-4-24T13:27:25Z</time></trkpt>
<trkpt lat="46.77473699" lon="7.10367593"><ele></ele><time>2014-4-24T13:27:28Z</time></trkpt>
<trkpt lat="46.77468795" lon="7.10364995"><ele></ele><time>2014-4-24T13:27:31Z</time></trkpt>
<trkpt lat="46.77409099" lon="7.10312298"><ele></ele><time>2014-4-24T13:27:34Z</time></trkpt>
<trkpt lat="46.77375094" lon="7.10273498"><ele></ele><time>2014-4-24T13:27:37Z</time></trkpt>
<trkpt lat="46.77314200" lon="7.10193300"><ele></ele><time>2014-4-24T13:27:40Z</time></trkpt>
<trkpt lat="46.77216198" lon="7.10086900"><ele></ele><time>2014-4-24T13:27:43Z</time></trkpt>
<trkpt lat="46.77168497" lon="7.10040397"><ele></ele><time>2014-4-24T13:27:46Z</time></trkpt>
<trkpt lat="46.77147894" lon="7.10043892"><ele></ele><time>2014-4-24T13:27:49Z</time></trkpt>
<trkpt lat="46.77140895" lon="7.10056893"><ele></ele><time>2014-4-24T13:27:52Z</time></trkpt>
<trkpt lat="46.77128599" lon="7.10056297"><ele></ele><time>2014-4-24T13:27:55Z</time></trkpt>
<trkpt lat="46.77054796" lon="7.09973996"><ele></ele><time>2014-4-24T13:27:58Z</time></trkpt>
<trkpt lat="46.76985495" lon="7.09893596"><ele></ele><time>2014-4-24T13:28:1Z</time></trkpt>
<trkpt lat="46.76948095" lon="7.09849600"><ele></ele><time>2014-4-24T13:28:4Z</time></trkpt>
<trkpt lat="46.76912698" lon="7.09796995"><ele></ele><time>2014-4-24T13:28:7Z</time></trkpt>
<trkpt lat="46.76873898" lon="7.09768698"><ele></ele><time>2014-4-24T13:28:10Z</time></trkpt>
<trkpt lat="46.76858693" lon="7.09754993"><ele></ele><time>2014-4-24T13:28:13Z</time></trkpt>
<trkpt lat="46.76817899" lon="7.09698600"><ele></ele><time>2014-4-24T13:28:16Z</time></trkpt>
<trkpt lat="46.76808595" lon="7.09691299"><ele></ele><time>2014-4-24T13:28:19Z</time></trkpt>
<trkpt lat="46.76809198" lon="7.09667092"><ele></ele><time>2014-4-24T13:28:22Z</time></trkpt>
<trkpt lat="46.76812492" lon="7.09661694"><ele></ele><time>2014-4-24T13:28:25Z</time></trkpt>
<trkpt lat="46.76848995" lon="7.09617899"><ele></ele><time>2014-4-24T13:28:28Z</time></trkpt>
<trkpt lat="46.76859096" lon="7.09606793"><ele></ele><time>2014-4-24T13:28:31Z</time></trkpt>
<trkpt lat="46.76881995" lon="7.09566300"><ele></ele><time>2014-4-24T13:28:34Z</time></trkpt>
<trkpt lat="46.76884795" lon="7.09553693"><ele></ele><time>2014-4-24T13:28:37Z</time></trkpt>
<trkpt lat="46.76882096" lon="7.09535396"><ele></ele><time>2014-4-24T13:28:40Z</time></trkpt>
<trkpt lat="46.76875197" lon="7.09509596"><ele></ele><time>2014-4-24T13:28:43Z</time></trkpt>
<trkpt lat="46.76875398" lon="7.09433195"><ele></ele><time>2014-4-24T13:28:46Z</time></trkpt>
<trkpt lat="46.76883495" lon="7.09307693"><ele></ele><time>2014-4-24T13:28:49Z</time></trkpt>
<trkpt lat="46.76899496" lon="7.09198292"><ele></ele><time>2014-4-24T13:28:52Z</time></trkpt>
<trkpt lat="46.76903293" lon="7.09145595"><ele></ele><time>2014-4-24T13:28:55Z</time></trkpt>
<trkpt lat="46.76905992" lon="7.09086293"><ele></ele><time>2014-4-24T13:28:58Z</time></trkpt>
<trkpt lat="46.76906093" lon="7.09028098"><ele></ele><time>2014-4-24T13:29:1Z</time></trkpt>
<trkpt lat="46.76907895" lon="7.09004997"><ele></ele><time>2014-4-24T13:29:4Z</time></trkpt>
<trkpt lat="46.76908096" lon="7.08995995"><ele></ele><time>2014-4-24T13:29:7Z</time></trkpt>
<trkpt lat="46.76905992" lon="7.08968092"><ele></ele><time>2014-4-24T13:29:10Z</time></trkpt>
<trkpt lat="46.76895599" lon="7.08905999"><ele></ele><time>2014-4-24T13:29:13Z</time></trkpt>
<trkpt lat="46.76889497" lon="7.08890794"><ele></ele><time>2014-4-24T13:29:16Z</time></trkpt>
<trkpt lat="46.76847495" lon="7.08807193"><ele></ele><time>2014-4-24T13:29:19Z</time></trkpt>
<trkpt lat="46.76794496" lon="7.08721396"><ele></ele><time>2014-4-24T13:29:22Z</time></trkpt>
<trkpt lat="46.76790993" lon="7.08715696"><ele></ele><time>2014-4-24T13:29:25Z</time></trkpt>
<trkpt lat="46.76784396" lon="7.08707993"><ele></ele><time>2014-4-24T13:29:28Z</time></trkpt>
<trkpt lat="46.76775595" lon="7.08688497"><ele></ele><time>2014-4-24T13:29:31Z</time></trkpt>
<trkpt lat="46.76750500" lon="7.08644793"><ele></ele><time>2014-4-24T13:29:34Z</time></trkpt>
<trkpt lat="46.76735999" lon="7.08621793"><ele></ele><time>2014-4-24T13:29:37Z</time></trkpt>
<trkpt lat="46.76711499" lon="7.08645992"><ele></ele><time>2014-4-24T13:29:40Z</time></trkpt>
<trkpt lat="46.76701499" lon="7.08657098"><ele></ele><time>2014-4-24T13:29:43Z</time></trkpt>
<trkpt lat="46.76695598" lon="7.08664600"><ele></ele><time>2014-4-24T13:29:46Z</time></trkpt>
<trkpt lat="46.76682497" lon="7.08672797"><ele></ele><time>2014-4-24T13:29:49Z</time></trkpt>
<trkpt lat="46.76643094" lon="7.08676795"><ele></ele><time>2014-4-24T13:29:52Z</time></trkpt>
<trkpt lat="46.76622399" lon="7.08665296"><ele></ele><time>2014-4-24T13:29:55Z</time></trkpt>
<trkpt lat="46.76574295" lon="7.08648196"><ele></ele><time>2014-4-24T13:29:58Z</time></trkpt>
<trkpt lat="46.76562100" lon="7.08628197"><ele></ele><time>2014-4-24T13:30:1Z</time></trkpt>
<trkpt lat="46.76559292" lon="7.08561796"><ele></ele><time>2014-4-24T13:30:4Z</time></trkpt>
<trkpt lat="46.76556392" lon="7.08476099"><ele></ele><time>2014-4-24T13:30:7Z</time></trkpt>
<trkpt lat="46.76552595" lon="7.08386396"><ele></ele><time>2014-4-24T13:30:10Z</time></trkpt>
<trkpt lat="46.76550499" lon="7.08333892"><ele></ele><time>2014-4-24T13:30:13Z</time></trkpt>
<trkpt lat="46.76549393" lon="7.08304798"><ele></ele><time>2014-4-24T13:30:16Z</time></trkpt>
<trkpt lat="46.76547599" lon="7.08265093"><ele></ele><time>2014-4-24T13:30:19Z</time></trkpt>
<trkpt lat="46.76546895" lon="7.08254700"><ele></ele><time>2014-4-24T13:30:22Z</time></trkpt>
<trkpt lat="46.76545093" lon="7.08177896"><ele></ele><time>2014-4-24T13:30:25Z</time></trkpt>
<trkpt lat="46.76547498" lon="7.08141393"><ele></ele><time>2014-4-24T13:30:28Z</time></trkpt>
<trkpt lat="46.76560599" lon="7.08080197"><ele></ele><time>2014-4-24T13:30:31Z</time></trkpt>
<trkpt lat="46.76562896" lon="7.08073298"><ele></ele><time>2014-4-24T13:30:34Z</time></trkpt>
<trkpt lat="46.76566098" lon="7.08059292"><ele></ele><time>2014-4-24T13:30:37Z</time></trkpt>
<trkpt lat="46.76567799" lon="7.08032194"><ele></ele><time>2014-4-24T13:30:40Z</time></trkpt>
<trkpt lat="46.76552092" lon="7.08005497"><ele></ele><time>2014-4-24T13:30:43Z</time></trkpt>
<trkpt lat="46.76563499" lon="7.07993092"><ele></ele><time>2014-4-24T13:30:46Z</time></trkpt>
<trkpt lat="46.76566400" lon="7.07978600"><ele></ele><time>2014-4-24T13:30:49Z</time></trkpt>
<trkpt lat="46.76556693" lon="7.07957393"><ele></ele><time>2014-4-24T13:30:52Z</time></trkpt>
<trkpt lat="46.76552393" lon="7.07959699"><ele></ele><time>2014-4-24T13:30:55Z</time></trkpt>
<trkpt lat="46.76528497" lon="7.07968692"><ele></ele><time>2014-4-24T13:30:58Z</time></trkpt>
<trkpt lat="46.76521892" lon="7.07970293"><ele></ele><time>2014-4-24T13:31:1Z</time></trkpt>
<trkpt lat="46.76516192" lon="7.07971693"><ele></ele><time>2014-4-24T13:31:4Z</time></trkpt>
<trkpt lat="46.76491692" lon="7.07963697"><ele></ele><time>2014-4-24T13:31:7Z</time></trkpt>
<trkpt lat="46.76486797" lon="7.07959598"><ele></ele><time>2014-4-24T13:31:10Z</time></trkpt>
<trkpt lat="46.76463797" lon="7.07948098"><ele></ele><time>2014-4-24T13:31:13Z</time></trkpt>
<trkpt lat="46.76445994" lon="7.07970997"><ele></ele><time>2014-4-24T13:31:16Z</time></trkpt>
<trkpt lat="46.76426497" lon="7.07992497"><ele></ele><time>2014-4-24T13:31:19Z</time></trkpt>
<trkpt lat="46.76395493" lon="7.07990795"><ele></ele><time>2014-4-24T13:31:22Z</time></trkpt>
<trkpt lat="46.76357196" lon="7.08004793"><ele></ele><time>2014-4-24T13:31:25Z</time></trkpt>
<trkpt lat="46.76324196" lon="7.08031397"><ele></ele><time>2014-4-24T13:31:28Z</time></trkpt>
<trkpt lat="46.76292395" lon="7.08053199"><ele></ele><time>2014-4-24T13:31:31Z</time></trkpt>
<trkpt lat="46.76252900" lon="7.08044398"><ele></ele><time>2014-4-24T13:31:34Z</time></trkpt>
<trkpt lat="46.76215399" lon="7.08038899"><ele></ele><time>2014-4-24T13:31:37Z</time></trkpt>
<trkpt lat="46.76214100" lon="7.07991893"><ele></ele><time>2014-4-24T13:31:40Z</time></trkpt>
<trkpt lat="46.76224996" lon="7.07937797"><ele></ele><time>2014-4-24T13:31:43Z</time></trkpt>
<trkpt lat="46.76230193" lon="7.07876399"><ele></ele><time>2014-4-24T13:31:46Z</time></trkpt>
<trkpt lat="46.76227293" lon="7.07824398"><ele></ele><time>2014-4-24T13:31:49Z</time></trkpt>
<trkpt lat="46.76235097" lon="7.07777694"><ele></ele><time>2014-4-24T13:31:52Z</time></trkpt>
<trkpt lat="46.76231895" lon="7.07730194"><ele></ele><time>2014-4-24T13:31:55Z</time></trkpt>
<trkpt lat="46.76222096" lon="7.07681193"><ele></ele><time>2014-4-24T13:31:58Z</time></trkpt>
<trkpt lat="46.76219598" lon="7.07630994"><ele></ele><time>2014-4-24T13:32:1Z</time></trkpt>
<trkpt lat="46.76210496" lon="7.07572698"><ele></ele><time>2014-4-24T13:32:4Z</time></trkpt>
<trkpt lat="46.76194193" lon="7.07519992"><ele></ele><time>2014-4-24T13:32:7Z</time></trkpt>
<trkpt lat="46.76160498" lon="7.07444496"><ele></ele><time>2014-4-24T13:32:10Z</time></trkpt>
<trkpt lat="46.76117197" lon="7.07373795"><ele></ele><time>2014-4-24T13:32:13Z</time></trkpt>
<trkpt lat="46.76089092" lon="7.07331995"><ele></ele><time>2014-4-24T13:32:16Z</time></trkpt>
<trkpt lat="46.76074692" lon="7.07274193"><ele></ele><time>2014-4-24T13:32:19Z</time></trkpt>
<trkpt lat="46.76052396" lon="7.07210097"><ele></ele><time>2014-4-24T13:32:22Z</time></trkpt>
<trkpt lat="46.76035699" lon="7.07171892"><ele></ele><time>2014-4-24T13:32:25Z</time></trkpt>
<trkpt lat="46.76019397" lon="7.07137099"><ele></ele><time>2014-4-24T13:32:28Z</time></trkpt>
<trkpt lat="46.76009699" lon="7.07117795"><ele></ele><time>2014-4-24T13:32:31Z</time></trkpt>
<trkpt lat="46.76003898" lon="7.07104493"><ele></ele><time>2014-4-24T13:32:34Z</time></trkpt>
<trkpt lat="46.75996196" lon="7.07088400"><ele></ele><time>2014-4-24T13:32:37Z</time></trkpt>
<trkpt lat="46.75952794" lon="7.07020598"><ele></ele><time>2014-4-24T13:32:40Z</time></trkpt>
<trkpt lat="46.75902000" lon="7.06956594"><ele></ele><time>2014-4-24T13:32:43Z</time></trkpt>
<trkpt lat="46.75857400" lon="7.06878894"><ele></ele><time>2014-4-24T13:32:46Z</time></trkpt>
<trkpt lat="46.75851792" lon="7.06844796"><ele></ele><time>2014-4-24T13:32:49Z</time></trkpt>
<trkpt lat="46.75856997" lon="7.06801596"><ele></ele><time>2014-4-24T13:32:52Z</time></trkpt>
<trkpt lat="46.75876996" lon="7.06719294"><ele></ele><time>2014-4-24T13:32:55Z</time></trkpt>
<trkpt lat="46.75877198" lon="7.06612894"><ele></ele><time>2014-4-24T13:32:58Z</time></trkpt>
<trkpt lat="46.75872697" lon="7.06573600"><ele></ele><time>2014-4-24T13:33:1Z</time></trkpt>
<trkpt lat="46.75861792" lon="7.06544297"><ele></ele><time>2014-4-24T13:33:4Z</time></trkpt>
<trkpt lat="46.75839697" lon="7.06521699"><ele></ele><time>2014-4-24T13:33:7Z</time></trkpt>
<trkpt lat="46.75812297" lon="7.06493595"><ele></ele><time>2014-4-24T13:33:10Z</time></trkpt>
<trkpt lat="46.75798994" lon="7.06487392"><ele></ele><time>2014-4-24T13:33:13Z</time></trkpt>
<trkpt lat="46.75784896" lon="7.06481692"><ele></ele><time>2014-4-24T13:33:16Z</time></trkpt>
<trkpt lat="46.75775793" lon="7.06479597"><ele></ele><time>2014-4-24T13:33:19Z</time></trkpt>
<trkpt lat="46.75765098" lon="7.06478499"><ele></ele><time>2014-4-24T13:33:22Z</time></trkpt>
<trkpt lat="46.75744898" lon="7.06476294"><ele></ele><time>2014-4-24T13:33:25Z</time></trkpt>
<trkpt lat="46.75733699" lon="7.06474995"><ele></ele><time>2014-4-24T13:33:28Z</time></trkpt>
<trkpt lat="46.75713398" lon="7.06470997"><ele></ele><time>2014-4-24T13:33:31Z</time></trkpt>
<trkpt lat="46.75673299" lon="7.06474895"><ele></ele><time>2014-4-24T13:33:34Z</time></trkpt>
<trkpt lat="46.75631600" lon="7.06458097"><ele></ele><time>2014-4-24T13:33:37Z</time></trkpt>
<trkpt lat="46.75597896" lon="7.06424695"><ele></ele><time>2014-4-24T13:33:40Z</time></trkpt>
<trkpt lat="46.75562994" lon="7.06395292"><ele></ele><time>2014-4-24T13:33:43Z</time></trkpt>
<trkpt lat="46.75537094" lon="7.06380799"><ele></ele><time>2014-4-24T13:33:46Z</time></trkpt>
<trkpt lat="46.75467792" lon="7.06381294"><ele></ele><time>2014-4-24T13:33:49Z</time></trkpt>
<trkpt lat="46.75448899" lon="7.06383792"><ele></ele><time>2014-4-24T13:33:52Z</time></trkpt>
<trkpt lat="46.75427794" lon="7.06385694"><ele></ele><time>2014-4-24T13:33:55Z</time></trkpt>
<trkpt lat="46.75417299" lon="7.06385996"><ele></ele><time>2014-4-24T13:33:58Z</time></trkpt>
<trkpt lat="46.75402899" lon="7.06391495"><ele></ele><time>2014-4-24T13:34:1Z</time></trkpt>
<trkpt lat="46.75404794" lon="7.06409994"><ele></ele><time>2014-4-24T13:34:4Z</time></trkpt>
<trkpt lat="46.75427492" lon="7.06487694"><ele></ele><time>2014-4-24T13:34:7Z</time></trkpt>
<trkpt lat="46.75443795" lon="7.06550097"><ele></ele><time>2014-4-24T13:34:10Z</time></trkpt>
<trkpt lat="46.75460299" lon="7.06608494"><ele></ele><time>2014-4-24T13:34:13Z</time></trkpt>
<trkpt lat="46.75472897" lon="7.06668793"><ele></ele><time>2014-4-24T13:34:16Z</time></trkpt>
<trkpt lat="46.75482293" lon="7.06742194"><ele></ele><time>2014-4-24T13:34:19Z</time></trkpt>
<trkpt lat="46.75486199" lon="7.06788696"><ele></ele><time>2014-4-24T13:34:22Z</time></trkpt>
<trkpt lat="46.75499693" lon="7.06855894"><ele></ele><time>2014-4-24T13:34:25Z</time></trkpt>
<trkpt lat="46.75514194" lon="7.06935396"><ele></ele><time>2014-4-24T13:34:28Z</time></trkpt>
<trkpt lat="46.75496299" lon="7.06995394"><ele></ele><time>2014-4-24T13:34:31Z</time></trkpt>
<trkpt lat="46.75467197" lon="7.07059298"><ele></ele><time>2014-4-24T13:34:34Z</time></trkpt>
<trkpt lat="46.75465294" lon="7.07061695"><ele></ele><time>2014-4-24T13:34:37Z</time></trkpt>
<trkpt lat="46.75448799" lon="7.07054897"><ele></ele><time>2014-4-24T13:34:40Z</time></trkpt>
<trkpt lat="46.75384996" lon="7.07062097"><ele></ele><time>2014-4-24T13:34:43Z</time></trkpt>
<trkpt lat="46.75325392" lon="7.07081292"><ele></ele><time>2014-4-24T13:34:46Z</time></trkpt>
<trkpt lat="46.75284597" lon="7.07076397"><ele></ele><time>2014-4-24T13:34:49Z</time></trkpt>
<trkpt lat="46.75256300" lon="7.07038393"><ele></ele><time>2014-4-24T13:34:52Z</time></trkpt>
<trkpt lat="46.75236393" lon="7.06991094"><ele></ele><time>2014-4-24T13:34:55Z</time></trkpt>
<trkpt lat="46.75225496" lon="7.06963099"><ele></ele><time>2014-4-24T13:34:58Z</time></trkpt>
<trkpt lat="46.75209998" lon="7.06889095"><ele></ele><time>2014-4-24T13:35:1Z</time></trkpt>
<trkpt lat="46.75207693" lon="7.06878399"><ele></ele><time>2014-4-24T13:35:4Z</time></trkpt>
<trkpt lat="46.75202496" lon="7.06814094"><ele></ele><time>2014-4-24T13:35:7Z</time></trkpt>
<trkpt lat="46.75211499" lon="7.06733996"><ele></ele><time>2014-4-24T13:35:10Z</time></trkpt>
<trkpt lat="46.75216695" lon="7.06698599"><ele></ele><time>2014-4-24T13:35:13Z</time></trkpt>
<trkpt lat="46.75217592" lon="7.06673898"><ele></ele><time>2014-4-24T13:35:16Z</time></trkpt>
<trkpt lat="46.75216000" lon="7.06656497"><ele></ele><time>2014-4-24T13:35:19Z</time></trkpt>
<trkpt lat="46.75204298" lon="7.06615794"><ele></ele><time>2014-4-24T13:35:22Z</time></trkpt>
<trkpt lat="46.75192220" lon="7.06573659"><ele></ele><time>2014-4-24T13:35:25Z</time></trkpt>
<trkpt lat="46.75163479" lon="7.06533015"><ele></ele><time>2014-4-24T13:35:28Z</time></trkpt>
<trkpt lat="46.75133832" lon="7.06492371"><ele></ele><time>2014-4-24T13:35:31Z</time></trkpt>
<trkpt lat="46.75097899" lon="7.06466144"><ele></ele><time>2014-4-24T13:35:34Z</time></trkpt>
<trkpt lat="46.75058378" lon="7.06430747"><ele></ele><time>2014-4-24T13:35:37Z</time></trkpt>
<trkpt lat="46.75026032" lon="7.06391411"><ele></ele><time>2014-4-24T13:35:40Z</time></trkpt>
<trkpt lat="46.75000878" lon="7.06344212"><ele></ele><time>2014-4-24T13:35:43Z</time></trkpt>
<trkpt lat="46.74982019" lon="7.06273410"><ele></ele><time>2014-4-24T13:35:46Z</time></trkpt>
<trkpt lat="46.74965850" lon="7.06234083"><ele></ele><time>2014-4-24T13:35:49Z</time></trkpt>
<trkpt lat="46.74930814" lon="7.06197370"><ele></ele><time>2014-4-24T13:35:52Z</time></trkpt>
<trkpt lat="46.74912843" lon="7.06182945"><ele></ele><time>2014-4-24T13:35:55Z</time></trkpt>
<trkpt lat="46.74887697" lon="7.06140993"><ele></ele><time>2014-4-24T13:35:58Z</time></trkpt>
<trkpt lat="46.74769596" lon="7.06169215"><ele></ele><time>2014-4-24T13:36:1Z</time></trkpt>
<trkpt lat="46.74605210" lon="7.06216405"><ele></ele><time>2014-4-24T13:36:4Z</time></trkpt>
<trkpt lat="46.74499204" lon="7.06238693"><ele></ele><time>2014-4-24T13:36:7Z</time></trkpt>
<trkpt lat="46.74464202" lon="7.06246580"><ele></ele><time>2014-4-24T13:36:10Z</time></trkpt>
<trkpt lat="46.74412997" lon="7.06240025"><ele></ele><time>2014-4-24T13:36:13Z</time></trkpt>
<trkpt lat="46.74386946" lon="7.06234787"><ele></ele><time>2014-4-24T13:36:16Z</time></trkpt>
<trkpt lat="46.74375270" lon="7.06229540"><ele></ele><time>2014-4-24T13:36:19Z</time></trkpt>
<trkpt lat="46.74332153" lon="7.06205945"><ele></ele><time>2014-4-24T13:36:22Z</time></trkpt>
<trkpt lat="46.74275558" lon="7.06160062"><ele></ele><time>2014-4-24T13:36:25Z</time></trkpt>
<trkpt lat="46.74270169" lon="7.06146953"><ele></ele><time>2014-4-24T13:36:28Z</time></trkpt>
<trkpt lat="46.74262977" lon="7.06106317"><ele></ele><time>2014-4-24T13:36:31Z</time></trkpt>
<trkpt lat="46.74218964" lon="7.06015860"><ele></ele><time>2014-4-24T13:36:34Z</time></trkpt>
<trkpt lat="46.74156083" lon="7.05950313"><ele></ele><time>2014-4-24T13:36:37Z</time></trkpt>
<trkpt lat="46.74137693" lon="7.05937908"><ele></ele><time>2014-4-24T13:36:40Z</time></trkpt>
<trkpt lat="46.74106252" lon="7.05928730"><ele></ele><time>2014-4-24T13:36:43Z</time></trkpt>
<trkpt lat="46.74084694" lon="7.05922175"><ele></ele><time>2014-4-24T13:36:46Z</time></trkpt>
<trkpt lat="46.74033489" lon="7.05902511"><ele></ele><time>2014-4-24T13:36:49Z</time></trkpt>
<trkpt lat="46.73974204" lon="7.05874985"><ele></ele><time>2014-4-24T13:36:52Z</time></trkpt>
<trkpt lat="46.73914919" lon="7.05842212"><ele></ele><time>2014-4-24T13:36:55Z</time></trkpt>
<trkpt lat="46.73868206" lon="7.05819933"><ele></ele><time>2014-4-24T13:36:58Z</time></trkpt>
<trkpt lat="46.73814302" lon="7.05818617"><ele></ele><time>2014-4-24T13:37:1Z</time></trkpt>
<trkpt lat="46.73791847" lon="7.05783228"><ele></ele><time>2014-4-24T13:37:4Z</time></trkpt>
<trkpt lat="46.73782292" lon="7.05767697"><ele></ele><time>2014-4-24T13:37:7Z</time></trkpt>
<trkpt lat="46.73691600" lon="7.05645296"><ele></ele><time>2014-4-24T13:37:10Z</time></trkpt>
<trkpt lat="46.73651199" lon="7.05604392"><ele></ele><time>2014-4-24T13:37:13Z</time></trkpt>
<trkpt lat="46.73646295" lon="7.05600595"><ele></ele><time>2014-4-24T13:37:16Z</time></trkpt>
<trkpt lat="46.73602894" lon="7.05579397"><ele></ele><time>2014-4-24T13:37:19Z</time></trkpt>
<trkpt lat="46.73562099" lon="7.05558392"><ele></ele><time>2014-4-24T13:37:22Z</time></trkpt>
<trkpt lat="46.73535193" lon="7.05545199"><ele></ele><time>2014-4-24T13:37:25Z</time></trkpt>
<trkpt lat="46.73526493" lon="7.05540095"><ele></ele><time>2014-4-24T13:37:28Z</time></trkpt>
<trkpt lat="46.73497299" lon="7.05513792"><ele></ele><time>2014-4-24T13:37:31Z</time></trkpt>
<trkpt lat="46.73491792" lon="7.05507900"><ele></ele><time>2014-4-24T13:37:34Z</time></trkpt>
<trkpt lat="46.73479797" lon="7.05470692"><ele></ele><time>2014-4-24T13:37:37Z</time></trkpt>
<trkpt lat="46.73478892" lon="7.05464498"><ele></ele><time>2014-4-24T13:37:40Z</time></trkpt>
<trkpt lat="46.73472798" lon="7.05419999"><ele></ele><time>2014-4-24T13:37:43Z</time></trkpt>
</trkseg></trk></gpx>